Time;durP1;ratioP1;P1;durP2;ratioP2;P2;SDS_P1;SDS_P2;PMS_P1;PMS_P2;Temp;Humidity;BMP_temperature;BMP_pressure;BME280_temperature;BME280_humidity;BME280_pressure;Samples;Min_cycle;Max_cycle;Signal;HPM_P1;HPM_P2
2022/09/19 00:00:12;;;;;;;;;;;13.60;93.80;14.00;99831.00;;;;345730;28;86565;-92
2022/09/19 00:00:23;;;;;;;;;;;13.60;93.80;14.00;99827.00;;;;345903;28;83389;-92
2022/09/19 00:00:35;;;;;;;;;;;13.60;93.90;14.00;99831.00;;;;348328;27;86481;-93
2022/09/19 00:00:47;;;;;;;;;;;13.60;93.90;13.90;99830.00;;;;345863;28;83477;-93
2022/09/19 00:01:18;;;;;;;;;;;13.60;93.90;13.80;99838.00;;;;347308;28;85950;-92
2022/09/19 00:01:35;;;;;;;;;;;13.60;93.90;13.90;99829.00;;;;348529;27;83606;-92
2022/09/19 00:01:48;;;;;;;;;;;13.60;94.00;14.00;99834.00;;;;347675;28;86417;-92
2022/09/19 00:02:01;;;;;;;;;;;13.60;93.90;13.90;99836.00;;;;346357;28;82504;-92
2022/09/19 00:02:14;;;;;;;;;;;13.60;94.20;14.00;99834.00;;;;345022;28;86386;-93
2022/09/19 00:02:27;;;;;;;;;;;13.70;94.00;14.00;99824.00;;;;344933;28;82635;-92
2022/09/19 00:02:39;;;;;;;;;;;13.70;93.90;14.10;99827.00;;;;344750;28;85942;-92
2022/09/19 00:02:51;;;;;;;;;;;13.70;93.80;14.00;99830.00;;;;346197;28;83434;-92
2022/09/19 00:03:04;;;;;;;;;;;13.70;93.90;13.90;99824.00;;;;344921;28;87369;-92
2022/09/19 00:03:16;;;;;;;;;;;13.70;94.00;13.90;99830.00;;;;345035;28;82359;-92
2022/09/19 00:03:28;;;;;;;;;;;13.70;94.10;13.90;99823.00;;;;347613;28;87662;-93
2022/09/19 00:03:41;;;;;;;;;;;13.70;94.10;13.90;99826.00;;;;347737;28;82461;-93
2022/09/19 00:03:55;;;;;;;;;;;13.70;94.10;13.80;99826.00;;;;346311;28;87257;-93
2022/09/19 00:04:13;;;;;;;;;;;13.70;94.10;13.80;99839.00;;;;347612;28;82647;-92
2022/09/19 00:04:30;;;;;;;;;;;13.70;94.10;13.80;99822.00;;;;346349;28;85817;-92
2022/09/19 00:04:42;;;;;;;;;;;13.70;94.30;13.80;99828.00;;;;346233;28;82555;-92
2022/09/19 00:04:55;;;;;;;;;;;13.60;94.10;13.80;99829.00;;;;345249;28;86032;-92
2022/09/19 00:05:10;;;;;;;;;;;13.60;94.10;13.80;99830.00;;;;347834;28;82554;-93
2022/09/19 00:05:22;;;;;;;;;;;13.60;94.30;13.80;99830.00;;;;345061;28;87613;-93
2022/09/19 00:05:38;;;;;;;;;;;13.60;94.20;13.70;99832.00;;;;347996;27;83400;-93
2022/09/19 00:05:52;;;;;;;;;;;13.60;94.20;13.70;99833.00;;;;346621;28;86213;-92
2022/09/19 00:06:13;;;;;;;;;;;13.60;94.20;13.90;99825.00;;;;347720;28;83587;-92
2022/09/19 00:06:28;;;;;;;;;;;13.60;94.20;14.00;99835.00;;;;346366;28;87359;-92
2022/09/19 00:06:41;;;;;;;;;;;13.60;94.20;14.00;99836.00;;;;347828;28;83347;-93
2022/09/19 00:06:54;;;;;;;;;;;13.60;94.10;14.00;99833.00;;;;345163;28;87228;-92
2022/09/19 00:07:08;;;;;;;;;;;13.60;94.10;14.00;99826.00;;;;346147;28;82595;-92
2022/09/19 00:07:21;;;;;;;;;;;13.70;94.10;14.00;99832.00;;;;347723;28;86673;-92
2022/09/19 00:07:33;;;;;;;;;;;13.60;94.00;13.90;99833.00;;;;347794;28;83508;-92
2022/09/19 00:07:47;;;;;;;;;;;13.60;94.10;13.80;99829.00;;;;346475;28;86228;-92
2022/09/19 00:07:59;;;;;;;;;;;13.60;94.10;13.80;99831.00;;;;346410;28;82537;-92
2022/09/19 00:08:12;;;;;;;;;;;13.60;94.10;13.90;99826.00;;;;345141;28;86303;-93
2022/09/19 00:08:24;;;;;;;;;;;13.60;94.10;13.90;99826.00;;;;345150;28;83478;-92
2022/09/19 00:08:38;;;;;;;;;;;13.60;94.10;13.90;99827.00;;;;347476;28;85515;-92
2022/09/19 00:08:50;;;;;;;;;;;13.60;94.00;13.90;99830.00;;;;346533;28;82470;-93
2022/09/19 00:09:02;;;;;;;;;;;13.60;94.00;13.90;99827.00;;;;346476;28;86359;-92
2022/09/19 00:09:30;;;;;;;;;;;13.60;93.90;13.80;99826.00;;;;346408;28;83475;-93
2022/09/19 00:09:42;;;;;;;;;;;13.60;94.20;13.80;99821.00;;;;343395;28;83682;-92
2022/09/19 00:09:55;;;;;;;;;;;13.60;94.00;13.90;99824.00;;;;343654;28;82474;-92
2022/09/19 00:10:10;;;;;;;;;;;13.60;94.00;13.90;99823.00;;;;344654;28;86409;-92
2022/09/19 00:10:23;;;;;;;;;;;13.60;94.10;13.80;99820.00;;;;343597;28;83480;-92
2022/09/19 00:10:40;;;;;;;;;;;13.60;94.20;13.80;99826.00;;;;343709;28;86074;-92
2022/09/19 00:10:52;;;;;;;;;;;13.60;94.20;13.90;99828.00;;;;346214;28;83563;-92
2022/09/19 00:11:06;;;;;;;;;;;13.60;94.10;13.90;99829.00;;;;343867;28;87259;-92
2022/09/19 00:11:20;;;;;;;;;;;13.60;94.00;13.90;99828.00;;;;346368;28;83465;-92
2022/09/19 00:11:32;;;;;;;;;;;13.60;94.00;13.80;99827.00;;;;344978;28;86375;-92
2022/09/19 00:11:48;;;;;;;;;;;13.60;94.10;13.80;99826.00;;;;346471;28;82318;-92
2022/09/19 00:12:01;;;;;;;;;;;13.60;94.10;13.90;99817.00;;;;346357;28;86257;-92
2022/09/19 00:12:13;;;;;;;;;;;13.60;94.10;14.00;99826.00;;;;345090;28;82494;-92
2022/09/19 00:12:28;;;;;;;;;;;13.60;94.00;14.00;99819.00;;;;345000;28;86428;-92
2022/09/19 00:12:41;;;;;;;;;;;13.60;94.00;14.00;99826.00;;;;346537;28;82563;-92
2022/09/19 00:12:55;;;;;;;;;;;13.60;94.00;13.90;99825.00;;;;343620;28;87548;-91
2022/09/19 00:13:07;;;;;;;;;;;13.60;94.00;13.90;99820.00;;;;345019;28;82603;-91
2022/09/19 00:13:20;;;;;;;;;;;13.60;94.10;13.90;99828.00;;;;343560;28;85281;-93
2022/09/19 00:13:34;;;;;;;;;;;13.60;94.10;14.00;99823.00;;;;342248;28;83429;-92
2022/09/19 00:13:48;;;;;;;;;;;13.60;94.10;14.00;99832.00;;;;343502;28;87835;-93
2022/09/19 00:14:00;;;;;;;;;;;13.60;94.10;13.90;99825.00;;;;343607;28;83370;-94
2022/09/19 00:14:14;;;;;;;;;;;13.60;94.10;13.90;99820.00;;;;343347;28;84729;-92
2022/09/19 00:14:28;;;;;;;;;;;13.60;94.00;13.90;99818.00;;;;346468;28;83172;-92
2022/09/19 00:14:41;;;;;;;;;;;13.60;94.10;13.90;99829.00;;;;346328;28;86582;-92
2022/09/19 00:14:55;;;;;;;;;;;13.60;94.00;13.90;99821.00;;;;345001;28;83370;-93
2022/09/19 00:15:08;;;;;;;;;;;13.60;94.00;13.90;99824.00;;;;344947;28;85129;-93
2022/09/19 00:15:22;;;;;;;;;;;13.60;93.90;14.00;99819.00;;;;347511;28;83551;-93
2022/09/19 00:15:35;;;;;;;;;;;13.60;94.00;14.00;99824.00;;;;346296;28;86584;-93
2022/09/19 00:15:48;;;;;;;;;;;13.60;94.00;13.90;99820.00;;;;346447;28;83366;-92
2022/09/19 00:16:01;;;;;;;;;;;13.60;94.00;13.90;99818.00;;;;347638;28;86008;-92
2022/09/19 00:16:16;;;;;;;;;;;13.60;94.10;13.80;99826.00;;;;344928;28;82375;-93
2022/09/19 00:16:38;;;;;;;;;;;13.60;94.20;13.90;99826.00;;;;344952;28;86560;-93
2022/09/19 00:16:58;;;;;;;;;;;13.60;94.00;13.90;99826.00;;;;345203;28;82571;-92
2022/09/19 00:17:10;;;;;;;;;;;13.60;94.00;14.00;99820.00;;;;345037;28;85681;-92
2022/09/19 00:17:23;;;;;;;;;;;13.50;94.10;13.90;99826.00;;;;342136;28;82634;-93
2022/09/19 00:17:35;;;;;;;;;;;13.60;94.20;13.90;99817.00;;;;346442;28;83542;-92
2022/09/19 00:17:49;;;;;;;;;;;13.60;94.30;13.80;99823.00;;;;343571;28;83412;-92
2022/09/19 00:18:01;;;;;;;;;;;13.60;94.50;13.80;99828.00;;;;344833;28;86419;-92
2022/09/19 00:18:13;;;;;;;;;;;13.60;94.40;13.80;99821.00;;;;344981;28;83434;-92
2022/09/19 00:18:26;;;;;;;;;;;13.60;94.40;13.90;99810.00;;;;344964;28;83857;-92
2022/09/19 00:18:38;;;;;;;;;;;13.60;94.50;14.00;99824.00;;;;343757;28;82557;-92
2022/09/19 00:18:51;;;;;;;;;;;13.60;94.20;14.00;99822.00;;;;347241;27;85223;-93
2022/09/19 00:19:04;;;;;;;;;;;13.50;94.30;13.90;99829.00;;;;344862;28;83383;-92
2022/09/19 00:19:18;;;;;;;;;;;13.60;94.40;14.00;99822.00;;;;344751;28;86409;-93
2022/09/19 00:19:31;;;;;;;;;;;13.60;94.30;14.00;99824.00;;;;345043;28;82551;-92
2022/09/19 00:19:43;;;;;;;;;;;13.60;94.20;13.90;99822.00;;;;344886;28;87537;-92
2022/09/19 00:19:55;;;;;;;;;;;13.60;94.40;13.90;99819.00;;;;346098;28;83607;-92
2022/09/19 00:20:07;;;;;;;;;;;13.60;94.30;13.90;99820.00;;;;343668;28;85045;-92
2022/09/19 00:20:28;;;;;;;;;;;13.60;94.30;13.80;99824.00;;;;346090;28;82567;-92
2022/09/19 00:20:41;;;;;;;;;;;13.60;94.50;13.80;99820.00;;;;344917;28;86024;-92
2022/09/19 00:20:53;;;;;;;;;;;13.60;94.50;13.80;99826.00;;;;344882;28;83512;-92
2022/09/19 00:21:05;;;;;;;;;;;13.60;94.50;13.80;99821.00;;;;346336;28;87215;-93
2022/09/19 00:21:19;;;;;;;;;;;13.50;94.40;13.80;99820.00;;;;345863;28;82569;-92
2022/09/19 00:21:36;;;;;;;;;;;13.60;94.50;13.80;99821.00;;;;345939;28;86089;-93
2022/09/19 00:21:57;;;;;;;;;;;13.60;94.50;13.90;99827.00;;;;346776;28;82500;-92
2022/09/19 00:22:09;;;;;;;;;;;13.60;94.30;13.80;99811.00;;;;345668;28;86063;-92
2022/09/19 00:22:21;;;;;;;;;;;13.60;94.30;13.80;99820.00;;;;344408;28;84398;-93
2022/09/19 00:22:33;;;;;;;;;;;13.50;94.40;13.90;99822.00;;;;344342;28;87009;-92
2022/09/19 00:24:45;;;;;;;;;;;13.50;94.40;13.90;99820.00;;;;347144;28;82467;-92
2022/09/19 00:24:49;;;;;;;;;;;13.60;94.50;13.90;99808.00;;;;347243;28;83538;-93
2022/09/19 00:25:01;;;;;;;;;;;13.50;94.40;13.90;99819.00;;;;344317;28;86706;-93
2022/09/19 00:25:14;;;;;;;;;;;13.60;94.40;14.00;99811.00;;;;345991;28;83506;-93
2022/09/19 00:25:28;;;;;;;;;;;13.50;94.40;13.90;99811.00;;;;344716;28;86484;-92
2022/09/19 00:25:41;;;;;;;;;;;13.60;94.50;13.70;99813.00;;;;344564;28;83453;-93
2022/09/19 00:26:06;;;;;;;;;;;13.60;94.70;13.80;99804.00;;;;344350;28;87230;-93
2022/09/19 00:26:19;;;;;;;;;;;13.60;94.80;13.80;99812.00;;;;345714;28;83434;-92
2022/09/19 00:26:31;;;;;;;;;;;13.50;94.80;13.80;99808.00;;;;344416;28;87090;-92
2022/09/19 00:26:45;;;;;;;;;;;13.50;94.70;13.70;99817.00;;;;343362;28;83365;-92
2022/09/19 00:26:56;;;;;;;;;;;13.50;94.70;13.80;99808.00;;;;344523;28;87896;-93
2022/09/19 00:27:10;;;;;;;;;;;13.50;94.60;13.90;99817.00;;;;344415;28;83395;-92
2022/09/19 00:27:25;;;;;;;;;;;13.50;94.50;14.00;99811.00;;;;344724;28;83906;-93
2022/09/19 00:27:38;;;;;;;;;;;13.50;94.60;14.00;99813.00;;;;343667;28;82519;-93
2022/09/19 00:27:50;;;;;;;;;;;13.50;94.60;14.00;99811.00;;;;344899;28;87391;-93
2022/09/19 00:28:16;;;;;;;;;;;13.50;94.60;13.80;99810.00;;;;345017;28;83403;-93
2022/09/19 00:28:28;;;;;;;;;;;13.50;94.60;13.80;99808.00;;;;345847;28;86257;-93
2022/09/19 00:28:42;;;;;;;;;;;13.50;94.60;13.80;99803.00;;;;344879;28;82455;-93
2022/09/19 00:28:54;;;;;;;;;;;13.50;94.50;13.80;99811.00;;;;344785;28;87026;-93
2022/09/19 00:29:07;;;;;;;;;;;13.50;94.60;13.80;99808.00;;;;344749;28;82513;-93
2022/09/19 00:29:19;;;;;;;;;;;13.60;94.60;13.80;99808.00;;;;344631;28;86151;-93
2022/09/19 00:29:32;;;;;;;;;;;13.50;94.60;13.70;99811.00;;;;344831;28;83529;-93
2022/09/19 00:29:44;;;;;;;;;;;13.50;94.70;13.70;99813.00;;;;346022;28;87774;-93
2022/09/19 00:29:58;;;;;;;;;;;13.50;94.80;13.80;99811.00;;;;344823;28;82583;-92
2022/09/19 00:30:10;;;;;;;;;;;13.50;94.60;13.80;99805.00;;;;344733;28;86300;-93
2022/09/19 00:30:22;;;;;;;;;;;13.50;94.80;13.70;99809.00;;;;346410;28;83413;-93
2022/09/19 00:30:38;;;;;;;;;;;13.50;94.80;13.70;99809.00;;;;344772;28;86675;-92
2022/09/19 00:30:51;;;;;;;;;;;13.50;94.80;13.60;99811.00;;;;346217;28;82507;-92
2022/09/19 00:31:04;;;;;;;;;;;13.50;95.00;13.60;99810.00;;;;343428;28;86602;-92
2022/09/19 00:31:17;;;;;;;;;;;13.50;95.00;13.70;99802.00;;;;346379;28;83399;-92
2022/09/19 00:31:30;;;;;;;;;;;13.40;94.90;13.80;99806.00;;;;344795;28;84029;-93
2022/09/19 00:31:43;;;;;;;;;;;13.50;94.80;13.80;99801.00;;;;346441;28;82362;-92
2022/09/19 00:31:55;;;;;;;;;;;13.40;94.70;13.80;99812.00;;;;344615;28;84731;-93
2022/09/19 00:32:11;;;;;;;;;;;13.50;94.70;13.80;99805.00;;;;346148;28;83464;-92
2022/09/19 00:32:23;;;;;;;;;;;13.40;94.70;13.80;99812.00;;;;344600;28;86661;-92
2022/09/19 00:32:36;;;;;;;;;;;13.40;94.60;13.80;99804.00;;;;342248;28;83299;-93
2022/09/19 00:32:48;;;;;;;;;;;13.40;94.70;13.70;99804.00;;;;346192;28;86263;-93
2022/09/19 00:33:00;;;;;;;;;;;13.50;94.80;13.70;99817.00;;;;344672;28;83511;-92
2022/09/19 00:33:12;;;;;;;;;;;13.50;94.80;13.70;99813.00;;;;344490;28;86147;-93
2022/09/19 00:33:30;;;;;;;;;;;13.40;94.70;13.70;99801.00;;;;343453;28;83378;-93
2022/09/19 00:33:41;;;;;;;;;;;13.40;94.50;13.70;99809.00;;;;343483;28;87486;-92
2022/09/19 00:33:54;;;;;;;;;;;13.40;94.70;13.70;99810.00;;;;345023;28;83178;-92
2022/09/19 00:34:09;;;;;;;;;;;13.40;94.70;13.80;99807.00;;;;348191;28;87541;-92
2022/09/19 00:34:22;;;;;;;;;;;13.40;94.70;13.80;99806.00;;;;349277;27;82475;-92
2022/09/19 00:34:35;;;;;;;;;;;13.40;94.80;13.80;99802.00;;;;347639;28;87346;-92
2022/09/19 00:34:49;;;;;;;;;;;13.40;94.90;13.70;99805.00;;;;347678;28;83494;-92
2022/09/19 00:35:01;;;;;;;;;;;13.40;94.80;13.70;99803.00;;;;346151;28;86808;-92
2022/09/19 00:35:13;;;;;;;;;;;13.40;94.90;13.60;99804.00;;;;347010;28;82320;-93
2022/09/19 00:35:31;;;;;;;;;;;13.40;95.10;13.60;99805.00;;;;347593;28;87529;-92
2022/09/19 00:35:43;;;;;;;;;;;13.40;95.00;13.70;99809.00;;;;346388;28;82556;-92
2022/09/19 00:36:03;;;;;;;;;;;13.40;94.80;13.80;99801.00;;;;343830;28;86547;-92
2022/09/19 00:36:17;;;;;;;;;;;13.40;94.80;13.70;99805.00;;;;344902;28;83425;-92
2022/09/19 00:36:30;;;;;;;;;;;13.40;94.90;13.70;99806.00;;;;344861;28;87176;-92
2022/09/19 00:36:42;;;;;;;;;;;13.40;95.00;13.60;99812.00;;;;343575;28;82529;-92
2022/09/19 00:36:54;;;;;;;;;;;13.40;95.00;13.50;99806.00;;;;346428;28;83441;-91
2022/09/19 00:37:10;;;;;;;;;;;13.40;95.00;13.40;99806.00;;;;344792;28;83471;-92
2022/09/19 00:37:22;;;;;;;;;;;13.30;95.10;13.40;99803.00;;;;345941;28;87105;-92
2022/09/19 00:37:34;;;;;;;;;;;13.30;95.10;13.60;99805.00;;;;346060;28;82559;-93
2022/09/19 00:37:47;;;;;;;;;;;13.30;95.10;13.60;99807.00;;;;345033;28;85853;-92
2022/09/19 00:37:59;;;;;;;;;;;13.30;95.10;13.60;99808.00;;;;347986;28;82597;-92
2022/09/19 00:38:11;;;;;;;;;;;13.30;95.10;13.60;99810.00;;;;346360;28;86782;-92
2022/09/19 00:38:24;;;;;;;;;;;13.30;94.90;13.60;99812.00;;;;342294;28;83378;-91
2022/09/19 00:38:37;;;;;;;;;;;13.30;94.80;13.50;99804.00;;;;346379;28;87296;-92
2022/09/19 00:38:49;;;;;;;;;;;13.30;94.90;13.50;99808.00;;;;344985;28;83474;-92
2022/09/19 00:39:03;;;;;;;;;;;13.30;94.80;13.40;99802.00;;;;345083;28;86240;-93
2022/09/19 00:39:16;;;;;;;;;;;13.30;95.00;13.50;99799.00;;;;343841;28;82593;-93
2022/09/19 00:39:29;;;;;;;;;;;13.30;95.20;13.50;99807.00;;;;343729;28;87278;-92
2022/09/19 00:39:41;;;;;;;;;;;13.30;95.30;13.50;99807.00;;;;348060;28;83333;-92
2022/09/19 00:39:54;;;;;;;;;;;13.30;95.30;13.50;99800.00;;;;346391;28;85855;-91
2022/09/19 00:40:07;;;;;;;;;;;13.30;95.10;13.60;99803.00;;;;344925;28;82598;-91
2022/09/19 00:40:18;;;;;;;;;;;13.30;94.90;13.60;99803.00;;;;346280;28;87702;-92
2022/09/19 00:40:30;;;;;;;;;;;13.30;94.90;13.60;99798.00;;;;344813;28;82299;-92
2022/09/19 00:40:42;;;;;;;;;;;13.20;94.90;13.60;99804.00;;;;341996;28;87877;-92
2022/09/19 00:40:55;;;;;;;;;;;13.20;95.00;13.50;99804.00;;;;344515;28;83233;-92
2022/09/19 00:41:07;;;;;;;;;;;13.20;95.10;13.60;99798.00;;;;344545;28;87669;-92
2022/09/19 00:41:21;;;;;;;;;;;13.20;95.20;13.70;99803.00;;;;346147;28;83438;-92
2022/09/19 00:41:33;;;;;;;;;;;13.30;95.20;13.70;99791.00;;;;346444;28;86509;-92
2022/09/19 00:41:46;;;;;;;;;;;13.30;95.10;13.70;99803.00;;;;345101;28;82513;-91
2022/09/19 00:41:58;;;;;;;;;;;13.30;95.00;13.50;99808.00;;;;345207;28;86284;-92
2022/09/19 00:42:22;;;;;;;;;;;13.20;95.10;13.40;99800.00;;;;343802;28;82593;-93
2022/09/19 00:42:34;;;;;;;;;;;13.20;95.20;13.40;99809.00;;;;346102;28;87329;-92
2022/09/19 00:42:46;;;;;;;;;;;13.30;95.60;13.40;99798.00;;;;346181;28;83608;-92
2022/09/19 00:43:00;;;;;;;;;;;13.20;95.60;13.40;99800.00;;;;344746;28;85118;-92
2022/09/19 00:43:17;;;;;;;;;;;13.20;95.50;13.30;99802.00;;;;345163;28;82770;-92
2022/09/19 00:45:19;;;;;;;;;;;13.20;95.60;13.40;99804.00;;;;349527;27;76216;-92
2022/09/19 00:45:31;;;;;;;;;;;13.20;95.30;13.30;99800.00;;;;350477;27;83457;-91
2022/09/19 00:45:43;;;;;;;;;;;13.10;95.60;13.40;99796.00;;;;346395;28;84872;-92
2022/09/19 00:45:56;;;;;;;;;;;13.10;95.40;13.40;99792.00;;;;344019;28;82400;-92
2022/09/19 00:46:08;;;;;;;;;;;13.10;95.40;13.30;99804.00;;;;346159;28;86141;-92
2022/09/19 00:46:20;;;;;;;;;;;13.10;95.60;13.20;99801.00;;;;346117;28;83372;-92
2022/09/19 00:46:34;;;;;;;;;;;13.10;95.60;13.20;99802.00;;;;343317;28;86542;-92
2022/09/19 00:46:47;;;;;;;;;;;13.10;95.60;13.30;99801.00;;;;343668;28;82519;-93
2022/09/19 00:47:05;;;;;;;;;;;13.10;95.60;13.30;99792.00;;;;345282;28;86164;-92
2022/09/19 00:47:21;;;;;;;;;;;13.10;95.60;13.30;99798.00;;;;347751;28;83406;-92
2022/09/19 00:47:48;;;;;;;;;;;13.10;95.50;13.30;99791.00;;;;346208;28;85604;-93
2022/09/19 00:48:00;;;;;;;;;;;13.10;95.50;13.30;99797.00;;;;349266;27;83439;-92
2022/09/19 00:48:15;;;;;;;;;;;13.10;95.70;13.30;99794.00;;;;343669;28;86205;-92
2022/09/19 00:48:27;;;;;;;;;;;13.10;95.70;13.30;99800.00;;;;346607;28;82550;-92
2022/09/19 00:48:41;;;;;;;;;;;13.10;95.70;13.30;99798.00;;;;344822;28;86021;-92
2022/09/19 00:49:09;;;;;;;;;;;13.00;95.60;13.20;99802.00;;;;344297;28;82530;-92
2022/09/19 00:49:22;;;;;;;;;;;13.10;95.50;13.20;99802.00;;;;343739;28;87365;-92
2022/09/19 00:49:38;;;;;;;;;;;13.00;95.40;13.20;99796.00;;;;345060;28;83613;-92
2022/09/19 00:49:54;;;;;;;;;;;13.00;95.30;13.30;99793.00;;;;346427;28;86043;-93
2022/09/19 00:50:19;;;;;;;;;;;13.00;95.20;13.40;99803.00;;;;343656;28;82512;-92
2022/09/19 00:50:31;;;;;;;;;;;13.00;95.30;13.40;99798.00;;;;346480;28;87571;-93
2022/09/19 00:50:44;;;;;;;;;;;13.00;95.30;13.40;99789.00;;;;347950;28;83365;-91
2022/09/19 00:50:56;;;;;;;;;;;13.00;95.30;13.40;99793.00;;;;343613;28;86221;-92
2022/09/19 00:51:32;;;;;;;;;;;13.00;95.40;13.30;99799.00;;;;346990;28;83361;-92
2022/09/19 00:51:51;;;;;;;;;;;13.00;95.60;13.30;99798.00;;;;344962;28;85778;-93
2022/09/19 00:52:04;;;;;;;;;;;13.00;95.50;13.40;99796.00;;;;347823;28;82473;-92
2022/09/19 00:52:38;;;;;;;;;;;13.00;95.30;13.50;99795.00;;;;347785;28;85435;-92
2022/09/19 00:52:53;;;;;;;;;;;13.00;95.40;13.40;99786.00;;;;345875;28;82678;-92
2022/09/19 00:53:09;;;;;;;;;;;13.10;95.50;13.40;99792.00;;;;346863;28;85232;-91
2022/09/19 00:53:22;;;;;;;;;;;13.10;95.50;13.30;99793.00;;;;344906;28;83452;-93
2022/09/19 00:53:35;;;;;;;;;;;13.00;95.60;13.30;99795.00;;;;347720;28;87129;-91
2022/09/19 00:53:48;;;;;;;;;;;13.00;95.70;13.20;99795.00;;;;346257;28;82471;-92
2022/09/19 00:54:02;;;;;;;;;;;13.00;95.60;13.30;99790.00;;;;344965;28;87197;-91
2022/09/19 00:54:28;;;;;;;;;;;13.00;95.60;13.40;99790.00;;;;345164;28;83396;-92
2022/09/19 00:54:43;;;;;;;;;;;13.10;95.60;13.40;99788.00;;;;345132;28;87552;-91
2022/09/19 00:55:01;;;;;;;;;;;13.00;95.40;13.30;99793.00;;;;342989;28;83456;-92
2022/09/19 00:55:14;;;;;;;;;;;13.00;95.40;13.30;99797.00;;;;344362;28;85083;-92
2022/09/19 00:55:26;;;;;;;;;;;13.00;95.30;13.40;99788.00;;;;343289;28;83343;-92
2022/09/19 00:55:37;;;;;;;;;;;13.00;95.20;13.50;99788.00;;;;345851;28;87365;-92
2022/09/19 00:55:52;;;;;;;;;;;13.00;95.30;13.40;99786.00;;;;344521;28;82474;-92
2022/09/19 00:56:04;;;;;;;;;;;13.00;95.40;13.50;99788.00;;;;344521;28;86003;-92
2022/09/19 00:56:18;;;;;;;;;;;13.00;95.50;13.40;99787.00;;;;345887;28;83536;-92
2022/09/19 00:56:29;;;;;;;;;;;13.10;95.60;13.30;99781.00;;;;345559;28;87479;-91
2022/09/19 00:56:44;;;;;;;;;;;13.10;95.70;13.30;99787.00;;;;345760;28;83414;-92
2022/09/19 00:56:56;;;;;;;;;;;13.00;95.70;13.40;99785.00;;;;345887;28;86406;-91
2022/09/19 00:57:09;;;;;;;;;;;13.00;95.60;13.50;99790.00;;;;344485;28;83489;-92
2022/09/19 00:57:21;;;;;;;;;;;13.00;95.60;13.40;99787.00;;;;344444;28;87414;-91
2022/09/19 00:57:43;;;;;;;;;;;13.10;95.50;13.40;99789.00;;;;347869;28;82543;-92
2022/09/19 00:58:07;;;;;;;;;;;13.00;95.50;13.30;99788.00;;;;346356;28;86738;-91
2022/09/19 00:58:50;;;;;;;;;;;13.00;95.40;13.20;99792.00;;;;347537;28;83636;-92
2022/09/19 00:59:03;;;;;;;;;;;13.00;95.30;13.20;99784.00;;;;344968;28;87056;-92
2022/09/19 00:59:15;;;;;;;;;;;13.00;95.50;13.10;99789.00;;;;339484;28;82596;-90
2022/09/19 00:59:29;;;;;;;;;;;13.00;95.50;13.10;99788.00;;;;343607;28;87889;-92
2022/09/19 00:59:45;;;;;;;;;;;13.00;95.40;13.20;99788.00;;;;346267;28;82449;-91
2022/09/19 00:59:57;;;;;;;;;;;13.00;95.30;13.20;99787.00;;;;344731;28;84872;-92
2022/09/19 01:00:12;;;;;;;;;;;13.00;95.30;13.20;99791.00;;;;346328;28;82605;-92
2022/09/19 01:00:25;;;;;;;;;;;12.90;95.30;13.30;99782.00;;;;344854;28;87710;-92
2022/09/19 01:00:37;;;;;;;;;;;13.00;95.30;13.30;99784.00;;;;342834;28;82552;-92
2022/09/19 01:00:49;;;;;;;;;;;13.00;95.20;13.40;99786.00;;;;344615;28;87325;-90
2022/09/19 01:01:01;;;;;;;;;;;13.00;95.20;13.30;99788.00;;;;346303;28;83481;-91
2022/09/19 01:01:14;;;;;;;;;;;12.90;95.20;13.20;99786.00;;;;346118;28;86559;-91
2022/09/19 01:01:26;;;;;;;;;;;13.00;95.30;13.20;99788.00;;;;346105;28;82506;-91
2022/09/19 01:01:39;;;;;;;;;;;13.00;95.40;13.30;99788.00;;;;342086;28;87423;-92
2022/09/19 01:01:53;;;;;;;;;;;13.00;95.20;13.30;99789.00;;;;346073;28;82570;-92
2022/09/19 01:02:06;;;;;;;;;;;13.00;95.20;13.30;99793.00;;;;346252;28;86180;-91
2022/09/19 01:02:21;;;;;;;;;;;12.90;95.10;13.30;99785.00;;;;341739;28;83490;-91
2022/09/19 01:02:33;;;;;;;;;;;13.00;95.10;13.30;99785.00;;;;346117;28;85403;-90
2022/09/19 01:02:46;;;;;;;;;;;13.00;95.00;13.30;99782.00;;;;347391;28;82553;-91
2022/09/19 01:02:58;;;;;;;;;;;12.90;95.10;13.30;99787.00;;;;346069;28;87451;-92
2022/09/19 01:03:12;;;;;;;;;;;13.00;95.10;13.30;99791.00;;;;345642;28;82315;-92
2022/09/19 01:03:26;;;;;;;;;;;13.00;95.00;13.30;99788.00;;;;345916;28;86127;-92
2022/09/19 01:03:38;;;;;;;;;;;13.00;95.00;13.30;99788.00;;;;347233;28;83162;-92
2022/09/19 01:03:52;;;;;;;;;;;13.00;95.20;13.20;99790.00;;;;347226;28;86551;-92
2022/09/19 01:04:19;;;;;;;;;;;13.00;95.20;13.40;99789.00;;;;345891;28;83294;-92
2022/09/19 01:04:34;;;;;;;;;;;13.00;95.20;13.30;99777.00;;;;344323;28;85597;-91
2022/09/19 01:04:47;;;;;;;;;;;13.00;95.20;13.30;99791.00;;;;347391;28;83323;-92
2022/09/19 01:05:01;;;;;;;;;;;13.00;95.30;13.20;99793.00;;;;344609;28;87108;-91
2022/09/19 01:05:13;;;;;;;;;;;13.00;95.30;13.10;99783.00;;;;344423;28;82604;-91
2022/09/19 01:05:28;;;;;;;;;;;13.00;95.30;13.10;99787.00;;;;345909;28;87321;-92
2022/09/19 01:05:59;;;;;;;;;;;13.00;95.40;13.20;99789.00;;;;344632;28;83468;-92
2022/09/19 01:06:20;;;;;;;;;;;13.00;95.40;13.20;99785.00;;;;345866;28;86649;-92
2022/09/19 01:06:46;;;;;;;;;;;12.90;95.10;13.40;99793.00;;;;344610;28;82482;-92
2022/09/19 01:07:24;;;;;;;;;;;12.90;95.10;13.30;99784.00;;;;342885;28;86577;-91
2022/09/19 01:07:55;;;;;;;;;;;12.90;95.10;13.10;99788.00;;;;346124;28;83553;-92
2022/09/19 01:08:31;;;;;;;;;;;12.90;95.10;13.10;99792.00;;;;344688;28;86352;-92
2022/09/19 01:09:23;;;;;;;;;;;12.90;95.20;13.10;99783.00;;;;346450;28;82484;-92
2022/09/19 01:10:08;;;;;;;;;;;12.90;95.30;13.30;99779.00;;;;347370;28;87679;-93
2022/09/19 01:10:33;;;;;;;;;;;12.90;95.20;13.20;99787.00;;;;347629;28;82608;-91
2022/09/19 01:11:30;;;;;;;;;;;12.90;95.30;13.20;99792.00;;;;346540;28;86693;-91
2022/09/19 01:12:01;;;;;;;;;;;12.90;95.20;13.20;99778.00;;;;345494;28;84193;-92
2022/09/19 01:12:32;;;;;;;;;;;12.90;95.20;13.20;99783.00;;;;344492;28;86966;-91
2022/09/19 01:13:20;;;;;;;;;;;12.90;95.00;13.30;99792.00;;;;345771;28;83370;-92
2022/09/19 01:13:39;;;;;;;;;;;12.90;95.10;13.30;99781.00;;;;344413;28;86031;-91
2022/09/19 01:14:03;;;;;;;;;;;12.90;95.10;13.40;99782.00;;;;348536;27;83460;-91
2022/09/19 01:14:39;;;;;;;;;;;12.90;95.00;13.50;99785.00;;;;345707;28;87004;-91
2022/09/19 01:15:12;;;;;;;;;;;12.90;95.00;13.30;99786.00;;;;347134;28;82512;-92
2022/09/19 01:15:33;;;;;;;;;;;13.00;95.10;13.30;99787.00;;;;344146;28;87318;-92
2022/09/19 01:16:05;;;;;;;;;;;13.00;95.20;13.10;99788.00;;;;344473;28;82446;-92
2022/09/19 01:16:21;;;;;;;;;;;12.90;95.20;13.30;99783.00;;;;345781;28;86317;-92
2022/09/19 01:16:42;;;;;;;;;;;12.90;95.10;13.30;99786.00;;;;346741;28;82290;-92
2022/09/19 01:17:05;;;;;;;;;;;12.90;95.10;13.30;99786.00;;;;344270;28;85679;-92
2022/09/19 01:17:25;;;;;;;;;;;12.90;95.30;13.40;99786.00;;;;347486;28;82539;-92
2022/09/19 01:17:49;;;;;;;;;;;12.90;95.10;13.20;99784.00;;;;347453;28;88173;-92
2022/09/19 01:18:02;;;;;;;;;;;13.00;95.10;13.30;99782.00;;;;343479;28;82551;-92
2022/09/19 01:18:14;;;;;;;;;;;13.00;95.10;13.30;99784.00;;;;347061;28;86780;-92
2022/09/19 01:18:29;;;;;;;;;;;12.90;95.00;13.40;99785.00;;;;345781;28;83480;-93
2022/09/19 01:19:01;;;;;;;;;;;13.00;95.00;13.40;99786.00;;;;344608;28;86126;-92
2022/09/19 01:19:13;;;;;;;;;;;13.00;94.90;13.30;99780.00;;;;345876;28;82510;-91
2022/09/19 01:19:46;;;;;;;;;;;13.00;94.90;13.30;99788.00;;;;348751;27;87087;-92
2022/09/19 01:20:08;;;;;;;;;;;13.00;95.00;13.40;99780.00;;;;348606;27;82561;-92
2022/09/19 01:20:29;;;;;;;;;;;13.00;95.00;13.30;99785.00;;;;346776;28;86793;-92
2022/09/19 01:21:37;;;;;;;;;;;13.00;95.00;13.20;99784.00;;;;345894;28;83376;-92
2022/09/19 01:22:03;;;;;;;;;;;13.00;95.10;13.20;99783.00;;;;344439;28;87456;-91
2022/09/19 01:22:43;;;;;;;;;;;12.90;95.20;13.10;99787.00;;;;346276;28;82560;-91
2022/09/19 01:23:25;;;;;;;;;;;12.90;95.10;13.30;99777.00;;;;345719;28;88051;-92
2022/09/19 01:23:45;;;;;;;;;;;12.90;95.10;13.20;99781.00;;;;347302;28;82513;-91